Time;durP1;ratioP1;P1;durP2;ratioP2;P2;SDS_P1;SDS_P2;PMS_P1;PMS_P2;Temp;Humidity;BMP_temperature;BMP_pressure;BME280_temperature;BME280_humidity;BME280_pressure;Samples;Min_cycle;Max_cycle;Signal;HPM_P1;HPM_P2
2021/12/22 00:00:39;;;;;;;28.63;14.25;;;;;;;;;;5074418;28;20408;-61
2021/12/22 00:03:08;;;;;;;25.00;13.32;;;;;;;;;;5082070;28;20067;-61
2021/12/22 00:05:44;;;;;;;;;;;;;;;;;;5084210;28;20059;-61
2021/12/22 00:08:13;;;;;;;28.58;12.90;;;;;;;;;;5073735;28;42987;-61
2021/12/22 00:10:40;;;;;;;29.33;14.50;;;;;;;;;;5075036;28;20059;-61
2021/12/22 00:13:07;;;;;;;28.13;14.13;;;;;;;;;;5075645;28;20045;-61
2021/12/22 00:15:34;;;;;;;26.75;13.43;;;;;;;;;;5084411;28;20507;-61
2021/12/22 00:18:00;;;;;;;22.52;11.82;;;;;;;;;;5070190;28;20537;-60
2021/12/22 00:20:26;;;;;;;28.92;13.40;;;;;;;;;;5079056;28;20062;-61
2021/12/22 00:22:57;;;;;;;26.17;12.18;;;;;;;;;;5076018;28;20107;-61
2021/12/22 00:25:25;;;;;;;25.95;13.23;;;;;;;;;;5080985;28;20059;-61
2021/12/22 00:27:53;;;;;;;30.05;13.02;;;;;;;;;;5084780;28;20883;-61
2021/12/22 00:30:20;;;;;;;26.05;12.95;;;;;;;;;;5069497;28;20152;-61
2021/12/22 00:32:51;;;;;;;25.23;12.23;;;;;;;;;;5082057;28;20058;-61
2021/12/22 00:35:23;;;;;;;27.10;13.10;;;;;;;;;;5073438;28;20080;-61
2021/12/22 00:37:50;;;;;;;27.85;13.50;;;;;;;;;;5085130;28;20060;-61
2021/12/22 00:40:16;;;;;;;26.05;11.88;;;;;;;;;;5077018;28;20059;-61
2021/12/22 00:42:43;;;;;;;26.50;12.60;;;;;;;;;;5077933;28;20060;-63
2021/12/22 00:45:10;;;;;;;27.25;13.02;;;;;;;;;;5085379;28;20198;-61
2021/12/22 00:47:37;;;;;;;24.55;12.32;;;;;;;;;;5072339;28;20517;-61
2021/12/22 00:50:04;;;;;;;24.98;12.23;;;;;;;;;;5082714;28;20061;-61
2021/12/22 00:52:31;;;;;;;26.02;11.88;;;;;;;;;;5079818;28;20055;-61
2021/12/22 00:54:57;;;;;;;30.48;12.40;;;;;;;;;;5075609;28;20088;-61
2021/12/22 00:57:24;;;;;;;23.10;12.23;;;;;;;;;;5086300;28;20066;-61
2021/12/22 00:59:50;;;;;;;25.80;12.13;;;;;;;;;;5074110;28;20063;-61
2021/12/22 01:02:17;;;;;;;24.95;12.32;;;;;;;;;;5080772;28;20057;-61
2021/12/22 01:04:44;;;;;;;24.63;12.55;;;;;;;;;;5070550;28;20055;-61
2021/12/22 01:07:11;;;;;;;26.33;11.80;;;;;;;;;;5084652;28;20598;-61
2021/12/22 01:09:37;;;;;;;25.13;12.20;;;;;;;;;;5072949;28;20053;-61
2021/12/22 01:12:05;;;;;;;25.73;12.95;;;;;;;;;;5083009;28;20091;-61
2021/12/22 01:14:32;;;;;;;26.33;13.02;;;;;;;;;;5079310;28;20147;-61
2021/12/22 01:17:02;;;;;;;24.67;12.63;;;;;;;;;;5074386;28;20087;-61
2021/12/22 01:19:45;;;;;;;28.63;13.52;;;;;;;;;;5085273;28;20132;-61
2021/12/22 01:22:32;;;;;;;23.55;11.70;;;;;;;;;;5076431;28;20052;-61
2021/12/22 01:25:07;;;;;;;23.88;11.90;;;;;;;;;;5084835;28;20450;-61
2021/12/22 01:27:38;;;;;;;23.65;11.68;;;;;;;;;;5085277;28;20059;-61
2021/12/22 01:30:06;;;;;;;26.08;11.85;;;;;;;;;;5068743;28;20057;-61
2021/12/22 01:32:32;;;;;;;26.23;12.32;;;;;;;;;;5079163;28;20095;-61
2021/12/22 01:34:58;;;;;;;23.52;11.02;;;;;;;;;;5074435;28;20053;-61
2021/12/22 01:37:25;;;;;;;23.13;11.02;;;;;;;;;;5085717;28;20947;-61
2021/12/22 01:39:51;;;;;;;24.58;11.55;;;;;;;;;;5073214;28;20072;-61
2021/12/22 01:42:18;;;;;;;21.88;11.60;;;;;;;;;;5079724;28;20055;-61
2021/12/22 01:44:59;;;;;;;25.92;12.43;;;;;;;;;;5080663;28;20151;-61
2021/12/22 01:50:14;;;;;;;32.33;12.10;;;;;;;;;;5081277;28;20558;-61
2021/12/22 01:52:40;;;;;;;25.35;11.52;;;;;;;;;;5079487;28;20487;-61
2021/12/22 01:55:14;;;;;;;26.42;12.48;;;;;;;;;;5072730;28;20053;-61
2021/12/22 01:57:45;;;;;;;25.27;12.65;;;;;;;;;;5084899;28;20512;-61
2021/12/22 02:00:11;;;;;;;22.92;11.95;;;;;;;;;;5075554;28;20075;-61
2021/12/22 02:02:38;;;;;;;21.48;10.05;;;;;;;;;;5077025;28;20052;-61
2021/12/22 02:05:04;;;;;;;20.98;10.75;;;;;;;;;;5083886;28;20062;-60
2021/12/22 02:07:31;;;;;;;23.67;11.35;;;;;;;;;;5071328;28;20579;-61
2021/12/22 02:12:29;;;;;;;17.65;9.25;;;;;;;;;;5069906;28;20561;-61
2021/12/22 02:14:56;;;;;;;15.07;8.75;;;;;;;;;;5082097;28;20044;-61
2021/12/22 02:17:24;;;;;;;15.05;9.18;;;;;;;;;;5071176;28;20067;-61
2021/12/22 02:19:51;;;;;;;14.85;8.32;;;;;;;;;;5083206;28;20053;-61
2021/12/22 02:22:18;;;;;;;15.68;8.63;;;;;;;;;;5076915;28;20110;-61
2021/12/22 02:24:51;;;;;;;16.90;9.65;;;;;;;;;;5075920;28;20053;-62
2021/12/22 02:27:25;;;;;;;15.32;8.43;;;;;;;;;;5085374;28;20041;-61
2021/12/22 02:29:57;;;;;;;16.95;7.85;;;;;;;;;;5072679;28;20096;-61
2021/12/22 02:33:01;;;;;;;13.45;7.65;;;;;;;;;;5078652;28;20057;-61
2021/12/22 02:35:26;;;;;;;17.48;8.98;;;;;;;;;;5084846;28;20144;-62
2021/12/22 02:37:53;;;;;;;16.08;8.77;;;;;;;;;;5072727;28;20067;-61
2021/12/22 02:40:25;;;;;;;14.93;8.20;;;;;;;;;;5079361;28;20144;-61
2021/12/22 02:43:02;;;;;;;14.02;8.63;;;;;;;;;;5081654;28;20059;-62
2021/12/22 02:45:29;;;;;;;15.65;8.45;;;;;;;;;;5070510;28;20053;-61
2021/12/22 02:47:55;;;;;;;15.98;8.65;;;;;;;;;;5072245;28;20053;-62
2021/12/22 02:50:21;;;;;;;15.95;8.35;;;;;;;;;;5078227;28;20059;-61
2021/12/22 02:55:14;;;;;;;17.48;8.32;;;;;;;;;;5072158;28;20049;-61
2021/12/22 02:57:46;;;;;;;15.35;9.18;;;;;;;;;;5053844;28;20062;-61
2021/12/22 03:05:22;;;;;;;17.02;9.15;;;;;;;;;;5083467;28;20064;-62
2021/12/22 03:07:49;;;;;;;19.13;9.35;;;;;;;;;;5072122;28;20056;-62
2021/12/22 03:10:17;;;;;;;18.13;9.82;;;;;;;;;;5079239;28;20136;-61
2021/12/22 03:12:44;;;;;;;;;;;;;;;;;;5079841;28;20067;-61
2021/12/22 03:15:10;;;;;;;21.80;9.35;;;;;;;;;;5070430;28;44631;-61
2021/12/22 03:17:37;;;;;;;16.00;8.95;;;;;;;;;;5083453;28;20067;-63
2021/12/22 03:20:04;;;;;;;15.10;8.82;;;;;;;;;;5068787;28;20055;-61
2021/12/22 03:22:34;;;;;;;15.82;8.98;;;;;;;;;;5077905;28;20052;-66
2021/12/22 03:25:00;;;;;;;18.63;9.90;;;;;;;;;;5073255;28;20142;-61
2021/12/22 03:27:27;;;;;;;17.90;9.48;;;;;;;;;;5083755;28;20079;-63
2021/12/22 03:29:53;;;;;;;18.98;10.70;;;;;;;;;;5072174;28;20075;-61
2021/12/22 03:32:19;;;;;;;16.27;9.73;;;;;;;;;;5078465;28;20149;-61
2021/12/22 03:34:46;;;;;;;18.70;10.57;;;;;;;;;;5078864;28;20044;-60
2021/12/22 03:37:13;;;;;;;16.58;8.93;;;;;;;;;;5070631;28;20053;-60
2021/12/22 03:39:39;;;;;;;21.55;10.27;;;;;;;;;;5083939;28;20057;-61
2021/12/22 03:42:07;;;;;;;18.45;9.73;;;;;;;;;;5073037;28;20048;-61
2021/12/22 03:44:33;;;;;;;21.60;11.70;;;;;;;;;;5076512;28;20570;-60
2021/12/22 03:47:00;;;;;;;18.88;10.68;;;;;;;;;;5068140;28;20053;-60
2021/12/22 03:49:27;;;;;;;24.55;12.43;;;;;;;;;;5069538;28;20108;-61
2021/12/22 03:51:53;;;;;;;22.15;11.50;;;;;;;;;;5084512;28;20057;-60
2021/12/22 03:54:20;;;;;;;21.20;11.00;;;;;;;;;;5071731;28;20053;-61
2021/12/22 03:56:46;;;;;;;26.80;11.50;;;;;;;;;;5082718;28;20055;-60
2021/12/22 03:59:12;;;;;;;20.85;11.43;;;;;;;;;;5073824;28;20063;-60
2021/12/22 04:01:39;;;;;;;20.58;10.90;;;;;;;;;;5086993;28;20053;-60
2021/12/22 04:04:12;;;;;;;27.27;11.68;;;;;;;;;;5076886;28;20056;-60
2021/12/22 04:06:39;;;;;;;22.05;11.68;;;;;;;;;;5078677;28;20057;-61
2021/12/22 04:09:05;;;;;;;21.30;11.40;;;;;;;;;;5085813;28;20063;-61
2021/12/22 04:11:32;;;;;;;26.10;12.13;;;;;;;;;;5072984;28;20099;-60
2021/12/22 04:13:58;;;;;;;23.77;12.68;;;;;;;;;;5084279;28;20084;-60
2021/12/22 04:16:24;;;;;;;19.80;10.52;;;;;;;;;;5079084;28;20528;-61
2021/12/22 04:18:51;;;;;;;25.30;12.55;;;;;;;;;;5076351;28;20057;-60
2021/12/22 04:21:17;;;;;;;20.80;10.98;;;;;;;;;;5086789;28;20053;-61
2021/12/22 04:23:44;;;;;;;25.08;12.93;;;;;;;;;;5073607;28;20056;-60
2021/12/22 04:26:12;;;;;;;25.95;12.73;;;;;;;;;;5083648;28;20048;-60
2021/12/22 04:28:42;;;;;;;23.98;13.07;;;;;;;;;;5078234;28;20882;-60
2021/12/22 04:31:08;;;;;;;28.02;13.55;;;;;;;;;;5085115;28;20148;-60
2021/12/22 04:33:35;;;;;;;25.05;11.57;;;;;;;;;;5073248;28;20059;-61
2021/12/22 04:36:01;;;;;;;22.77;11.70;;;;;;;;;;5083427;28;20057;-60
2021/12/22 04:38:27;;;;;;;19.55;11.25;;;;;;;;;;5078883;28;20052;-60
2021/12/22 04:40:54;;;;;;;22.60;12.02;;;;;;;;;;5076063;28;20499;-60
2021/12/22 04:43:20;;;;;;;24.92;12.77;;;;;;;;;;5070636;28;20586;-60
2021/12/22 04:45:47;;;;;;;20.92;11.38;;;;;;;;;;5082452;28;20059;-60
2021/12/22 04:48:13;;;;;;;23.08;11.32;;;;;;;;;;5082494;28;20049;-60
2021/12/22 04:50:40;;;;;;;25.85;12.38;;;;;;;;;;5080975;28;20675;-61
2021/12/22 04:53:14;;;;;;;23.65;11.55;;;;;;;;;;5073122;28;20049;-61
2021/12/22 04:55:40;;;;;;;20.60;11.02;;;;;;;;;;5085736;28;20053;-60
2021/12/22 04:58:07;;;;;;;22.05;11.25;;;;;;;;;;5076412;28;20057;-61
2021/12/22 05:00:34;;;;;;;24.08;10.93;;;;;;;;;;5077829;28;20090;-60
2021/12/22 05:03:00;;;;;;;23.40;11.95;;;;;;;;;;5070585;28;20499;-61
2021/12/22 05:05:27;;;;;;;21.77;10.75;;;;;;;;;;5086060;28;20138;-60
2021/12/22 05:07:53;;;;;;;27.00;11.38;;;;;;;;;;5074548;28;21430;-61
2021/12/22 05:10:20;;;;;;;19.80;10.77;;;;;;;;;;5080353;28;20158;-61
2021/12/22 05:12:47;;;;;;;21.73;11.65;;;;;;;;;;5080778;28;20509;-60
2021/12/22 05:15:13;;;;;;;26.50;12.73;;;;;;;;;;5073472;28;20084;-60
2021/12/22 05:20:09;;;;;;;24.85;11.90;;;;;;;;;;5076246;28;20053;-61
2021/12/22 05:22:36;;;;;;;31.17;13.05;;;;;;;;;;5077782;28;20053;-61
2021/12/22 05:25:03;;;;;;;25.50;12.27;;;;;;;;;;5078198;28;20115;-61
2021/12/22 05:27:29;;;;;;;24.00;11.88;;;;;;;;;;5086170;28;20572;-61
2021/12/22 05:29:56;;;;;;;23.02;11.20;;;;;;;;;;5073626;28;20063;-61
2021/12/22 05:32:28;;;;;;;23.27;11.77;;;;;;;;;;5079579;28;20053;-61
2021/12/22 05:34:55;;;;;;;24.20;11.35;;;;;;;;;;5082606;28;20511;-61
2021/12/22 05:37:21;;;;;;;27.70;13.50;;;;;;;;;;5071719;28;20059;-61
2021/12/22 05:39:47;;;;;;;25.88;13.50;;;;;;;;;;5084414;28;20057;-61
2021/12/22 05:42:13;;;;;;;24.80;12.95;;;;;;;;;;5077196;28;20154;-60
2021/12/22 05:44:41;;;;;;;27.33;12.30;;;;;;;;;;5075889;28;20056;-61
2021/12/22 05:47:08;;;;;;;23.90;12.27;;;;;;;;;;5083918;28;20139;-61
2021/12/22 05:49:34;;;;;;;25.58;12.25;;;;;;;;;;5072643;28;20562;-60
2021/12/22 05:52:00;;;;;;;25.73;12.55;;;;;;;;;;5081861;28;20057;-60
2021/12/22 05:54:27;;;;;;;29.65;12.63;;;;;;;;;;5068462;28;20874;-60
2021/12/22 05:56:53;;;;;;;31.50;12.60;;;;;;;;;;5081919;28;20061;-60
2021/12/22 05:59:19;;;;;;;26.77;12.40;;;;;;;;;;5071477;28;20063;-60
2021/12/22 06:01:46;;;;;;;26.60;12.43;;;;;;;;;;5083905;28;20059;-60
2021/12/22 06:04:12;;;;;;;23.98;11.73;;;;;;;;;;5076618;28;20059;-60
2021/12/22 06:06:39;;;;;;;25.00;11.23;;;;;;;;;;5076627;28;20053;-60
2021/12/22 06:09:05;;;;;;;28.13;12.15;;;;;;;;;;5083654;28;20376;-60
2021/12/22 06:11:33;;;;;;;25.08;11.10;;;;;;;;;;5071373;28;20053;-60
2021/12/22 06:14:00;;;;;;;28.30;12.75;;;;;;;;;;5081765;28;20071;-60
2021/12/22 06:16:29;;;;;;;27.75;12.65;;;;;;;;;;5077045;28;20052;-60
2021/12/22 06:19:01;;;;;;;27.63;11.95;;;;;;;;;;5073632;28;20056;-60
2021/12/22 06:21:27;;;;;;;33.55;12.40;;;;;;;;;;5084689;28;20058;-60
2021/12/22 06:23:53;;;;;;;26.23;11.93;;;;;;;;;;5073595;28;20525;-60
2021/12/22 06:26:20;;;;;;;33.58;12.13;;;;;;;;;;5081013;28;20055;-60
2021/12/22 06:28:46;;;;;;;27.50;12.32;;;;;;;;;;5080742;28;20076;-61
2021/12/22 06:31:12;;;;;;;32.80;11.90;;;;;;;;;;5071673;28;20069;-60
2021/12/22 06:33:39;;;;;;;36.20;12.50;;;;;;;;;;5084674;28;20077;-60
2021/12/22 06:36:05;;;;;;;29.02;11.85;;;;;;;;;;5074650;28;20534;-60
2021/12/22 06:38:32;;;;;;;25.42;12.15;;;;;;;;;;5076814;28;20084;-60
2021/12/22 06:40:59;;;;;;;25.35;11.52;;;;;;;;;;5081817;28;20048;-61
2021/12/22 06:43:25;;;;;;;30.92;12.00;;;;;;;;;;5071347;28;20156;-60
2021/12/22 06:45:51;;;;;;;28.58;12.02;;;;;;;;;;5071820;28;20058;-61
2021/12/22 06:48:18;;;;;;;30.80;11.90;;;;;;;;;;5070436;28;20053;-61
2021/12/22 06:50:44;;;;;;;26.58;11.95;;;;;;;;;;5079300;28;20878;-61
2021/12/22 06:53:10;;;;;;;31.55;11.82;;;;;;;;;;5071515;28;20056;-60
2021/12/22 06:55:37;;;;;;;28.17;12.30;;;;;;;;;;5083682;28;20075;-60
2021/12/22 06:58:03;;;;;;;28.33;12.30;;;;;;;;;;5074485;28;20051;-60
2021/12/22 07:00:30;;;;;;;32.40;12.32;;;;;;;;;;5077481;28;20550;-61
2021/12/22 07:02:57;;;;;;;32.42;12.70;;;;;;;;;;5081183;28;20058;-60
2021/12/22 07:05:24;;;;;;;27.35;10.40;;;;;;;;;;5070693;28;20890;-60
2021/12/22 07:07:50;;;;;;;29.80;12.57;;;;;;;;;;5082338;28;20055;-60
2021/12/22 07:10:17;;;;;;;27.42;11.88;;;;;;;;;;5076103;28;20062;-61
2021/12/22 07:12:47;;;;;;;27.95;12.48;;;;;;;;;;5075360;28;20049;-60
2021/12/22 07:15:15;;;;;;;30.40;12.52;;;;;;;;;;5084421;28;20147;-60
2021/12/22 07:17:43;;;;;;;24.90;11.85;;;;;;;;;;5051948;28;21311;-60
2021/12/22 07:20:10;;;;;;;26.90;10.43;;;;;;;;;;5074870;28;20058;-61
2021/12/22 07:22:36;;;;;;;28.42;12.27;;;;;;;;;;5075864;28;20142;-60
2021/12/22 07:25:04;;;;;;;27.75;10.95;;;;;;;;;;5078629;28;20057;-60
2021/12/22 07:27:30;;;;;;;26.83;11.30;;;;;;;;;;5087703;28;20507;-60
2021/12/22 07:29:56;;;;;;;26.50;12.38;;;;;;;;;;5075388;28;20053;-60
2021/12/22 07:32:23;;;;;;;24.83;11.15;;;;;;;;;;5090815;28;20044;-60
2021/12/22 07:34:57;;;;;;;27.10;11.65;;;;;;;;;;5077356;28;20594;-60
2021/12/22 07:37:23;;;;;;;25.10;11.05;;;;;;;;;;5087362;28;20052;-61
2021/12/22 07:39:51;;;;;;;26.90;10.93;;;;;;;;;;5075181;28;20525;-62
2021/12/22 07:42:18;;;;;;;30.75;11.55;;;;;;;;;;5081078;28;20083;-61
2021/12/22 07:44:44;;;;;;;27.45;11.60;;;;;;;;;;5083018;28;20059;-62
2021/12/22 07:47:10;;;;;;;24.65;11.05;;;;;;;;;;5074417;28;20442;-61
2021/12/22 07:49:37;;;;;;;27.45;11.98;;;;;;;;;;5087149;28;20053;-61
2021/12/22 07:52:03;;;;;;;26.35;11.20;;;;;;;;;;5071616;28;20083;-61
2021/12/22 07:54:30;;;;;;;26.67;11.02;;;;;;;;;;5080476;28;20044;-62
2021/12/22 07:56:56;;;;;;;29.50;11.77;;;;;;;;;;5076052;28;20052;-60
2021/12/22 07:59:22;;;;;;;31.27;11.07;;;;;;;;;;5087436;28;20052;-61
2021/12/22 08:01:49;;;;;;;25.17;10.82;;;;;;;;;;5074976;28;20139;-61
2021/12/22 08:04:16;;;;;;;23.85;10.68;;;;;;;;;;5090728;28;20056;-61
2021/12/22 08:06:43;;;;;;;28.00;10.82;;;;;;;;;;5078273;28;20053;-61
2021/12/22 08:09:09;;;;;;;31.30;11.18;;;;;;;;;;5080286;28;20144;-61
2021/12/22 08:11:36;;;;;;;26.55;10.52;;;;;;;;;;5085899;28;20156;-61
2021/12/22 08:14:03;;;;;;;26.30;11.02;;;;;;;;;;5077058;28;20114;-61
2021/12/22 08:16:29;;;;;;;26.50;11.23;;;;;;;;;;5079253;28;20052;-61
2021/12/22 08:18:56;;;;;;;25.55;10.82;;;;;;;;;;5083798;28;20060;-61
2021/12/22 08:21:22;;;;;;;22.90;11.50;;;;;;;;;;5072696;28;20053;-61
2021/12/22 08:23:49;;;;;;;25.00;11.13;;;;;;;;;;5085253;28;20063;-61
2021/12/22 08:26:15;;;;;;;22.95;11.30;;;;;;;;;;5071301;28;20955;-61
2021/12/22 08:28:41;;;;;;;28.55;11.85;;;;;;;;;;5080730;28;20056;-61
2021/12/22 08:31:08;;;;;;;34.58;11.35;;;;;;;;;;5069976;28;20064;-60
2021/12/22 08:33:43;;;;;;;28.65;11.15;;;;;;;;;;5063565;28;20056;-60
2021/12/22 08:38:54;;;;;;;29.88;10.18;;;;;;;;;;5065866;28;20053;-61
2021/12/22 08:41:25;;;;;;;25.42;9.80;;;;;;;;;;5085461;28;20605;-61
2021/12/22 08:43:52;;;;;;;28.55;12.23;;;;;;;;;;5074712;28;20160;-61
2021/12/22 08:46:19;;;;;;;24.10;10.95;;;;;;;;;;5087498;28;20063;-61
2021/12/22 08:48:45;;;;;;;23.40;9.00;;;;;;;;;;5085055;28;20102;-61
2021/12/22 08:51:12;;;;;;;26.35;10.32;;;;;;;;;;5073007;28;20057;-61
2021/12/22 08:53:38;;;;;;;20.83;10.00;;;;;;;;;;5075411;28;20052;-61
2021/12/22 08:56:04;;;;;;;27.25;11.48;;;;;;;;;;5073073;28;20514;-61
2021/12/22 08:58:31;;;;;;;25.70;10.82;;;;;;;;;;5072354;28;20061;-61
2021/12/22 09:00:57;;;;;;;30.58;10.98;;;;;;;;;;5070868;28;20096;-61
2021/12/22 09:03:24;;;;;;;22.15;10.70;;;;;;;;;;5078261;28;20515;-61
2021/12/22 09:05:50;;;;;;;22.48;10.82;;;;;;;;;;5059086;28;20151;-61
2021/12/22 09:08:17;;;;;;;29.33;10.88;;;;;;;;;;5066894;28;20052;-61
2021/12/22 09:10:43;;;;;;;27.25;11.65;;;;;;;;;;5057139;28;20558;-60
2021/12/22 09:13:12;;;;;;;25.80;10.75;;;;;;;;;;5081217;28;20080;-61
2021/12/22 09:15:38;;;;;;;27.48;11.30;;;;;;;;;;5063542;28;20055;-61
2021/12/22 09:18:05;;;;;;;26.38;10.93;;;;;;;;;;5071048;28;20044;-61
2021/12/22 09:20:31;;;;;;;26.15;10.27;;;;;;;;;;5075232;28;20192;-62
2021/12/22 09:22:58;;;;;;;25.20;10.10;;;;;;;;;;5068185;28;20053;-61
2021/12/22 09:25:24;;;;;;;23.77;10.68;;;;;;;;;;5062614;28;20037;-61
2021/12/22 09:27:50;;;;;;;22.77;10.35;;;;;;;;;;5060504;28;20056;-61
2021/12/22 09:30:17;;;;;;;23.08;10.50;;;;;;;;;;5079673;28;20052;-61
2021/12/22 09:32:43;;;;;;;29.27;10.95;;;;;;;;;;5080543;28;20048;-61
2021/12/22 09:35:09;;;;;;;26.75;11.70;;;;;;;;;;5051708;28;20511;-61
2021/12/22 09:37:36;;;;;;;27.17;12.13;;;;;;;;;;5065530;28;20298;-61
2021/12/22 09:40:04;;;;;;;25.00;10.18;;;;;;;;;;5082721;28;20053;-60
2021/12/22 09:42:30;;;;;;;21.30;9.48;;;;;;;;;;5072689;28;20186;-62
2021/12/22 09:45:00;;;;;;;22.50;9.93;;;;;;;;;;5082443;28;20049;-61
2021/12/22 09:47:30;;;;;;;22.17;9.50;;;;;;;;;;5068889;28;20063;-61
2021/12/22 09:50:11;;;;;;;25.25;10.57;;;;;;;;;;5068436;28;20052;-61
2021/12/22 09:52:38;;;;;;;21.17;9.52;;;;;;;;;;5063603;28;20053;-61
2021/12/22 09:55:06;;;;;;;24.48;10.43;;;;;;;;;;5082980;28;20049;-61
2021/12/22 09:57:32;;;;;;;25.27;10.63;;;;;;;;;;5068112;28;20048;-60
2021/12/22 09:59:59;;;;;;;29.15;10.98;;;;;;;;;;5060340;28;20583;-60
2021/12/22 10:02:29;;;;;;;25.23;11.45;;;;;;;;;;5081084;28;20052;-60
2021/12/22 10:04:56;;;;;;;31.70;12.70;;;;;;;;;;5076145;28;20626;-61
2021/12/22 10:07:28;;;;;;;26.13;11.52;;;;;;;;;;5074725;28;20055;-61
2021/12/22 10:09:55;;;;;;;26.73;10.95;;;;;;;;;;5072672;28;20048;-61
2021/12/22 10:12:23;;;;;;;23.67;11.05;;;;;;;;;;5079407;28;20053;-62
2021/12/22 10:14:54;;;;;;;22.83;10.75;;;;;;;;;;5081506;28;20137;-61
2021/12/22 10:17:38;;;;;;;27.23;11.20;;;;;;;;;;5075902;28;20111;-60
2021/12/22 10:20:17;;;;;;;30.50;11.43;;;;;;;;;;5047176;28;20107;-61
2021/12/22 10:22:46;;;;;;;26.40;11.27;;;;;;;;;;5058400;28;20530;-61
2021/12/22 10:25:12;;;;;;;;;;;;;;;;;;5054374;28;20140;-61
2021/12/22 10:27:40;;;;;;;24.67;11.27;;;;;;;;;;5064099;28;44631;-60
2021/12/22 10:30:23;;;;;;;26.77;11.93;;;;;;;;;;5061229;28;20144;-60
2021/12/22 10:33:02;;;;;;;23.67;11.00;;;;;;;;;;5054303;28;20049;-60
2021/12/22 10:35:29;;;;;;;33.97;11.85;;;;;;;;;;5064208;28;20097;-61
2021/12/22 10:37:57;;;;;;;27.10;11.38;;;;;;;;;;5083058;28;20053;-61
2021/12/22 10:40:25;;;;;;;22.80;10.27;;;;;;;;;;5065124;28;20052;-61
2021/12/22 10:42:52;;;;;;;21.92;11.75;;;;;;;;;;5066062;28;20159;-61
2021/12/22 10:45:19;;;;;;;25.30;11.20;;;;;;;;;;5077930;28;20063;-61
2021/12/22 10:50:34;;;;;;;27.45;10.98;;;;;;;;;;5062619;28;20634;-61
2021/12/22 10:53:01;;;;;;;27.77;12.25;;;;;;;;;;5069268;28;20049;-61
2021/12/22 10:55:47;;;;;;;25.35;11.75;;;;;;;;;;5064316;28;20061;-61
2021/12/22 10:58:26;;;;;;;24.10;11.35;;;;;;;;;;5058566;28;20930;-60
2021/12/22 11:01:04;;;;;;;25.77;11.63;;;;;;;;;;5063550;28;20816;-61
2021/12/22 11:03:38;;;;;;;28.98;11.57;;;;;;;;;;5064183;28;20053;-61
2021/12/22 11:06:13;;;;;;;26.15;10.77;;;;;;;;;;5058551;28;20122;-61
2021/12/22 11:08:39;;;;;;;24.90;12.00;;;;;;;;;;5059188;28;20085;-61
2021/12/22 11:11:15;;;;;;;25.85;12.15;;;;;;;;;;5061826;28;20058;-61
2021/12/22 11:13:42;;;;;;;27.98;11.18;;;;;;;;;;5072527;28;20059;-61
2021/12/22 11:16:12;;;;;;;28.75;11.80;;;;;;;;;;5075908;28;20052;-61
2021/12/22 11:18:38;;;;;;;24.98;11.52;;;;;;;;;;5064720;28;20150;-60
2021/12/22 11:21:15;;;;;;;24.13;11.30;;;;;;;;;;5061842;28;20055;-61
2021/12/22 11:23:41;;;;;;;22.63;11.30;;;;;;;;;;5066773;28;20053;-61
2021/12/22 11:26:09;;;;;;;28.73;12.23;;;;;;;;;;5075952;28;20055;-61
2021/12/22 11:28:35;;;;;;;26.33;12.40;;;;;;;;;;5082261;28;20529;-61
2021/12/22 11:31:03;;;;;;;25.17;10.95;;;;;;;;;;5067802;28;20059;-61
2021/12/22 11:33:31;;;;;;;28.88;13.95;;;;;;;;;;5072100;28;20156;-61
2021/12/22 11:35:58;;;;;;;30.40;12.52;;;;;;;;;;5075290;28;20055;-61
2021/12/22 11:38:25;;;;;;;27.48;13.00;;;;;;;;;;5074440;28;20848;-61
2021/12/22 11:41:02;;;;;;;22.93;10.93;;;;;;;;;;5070245;28;20582;-61
2021/12/22 11:43:29;;;;;;;25.30;11.10;;;;;;;;;;5080881;28;20299;-61
2021/12/22 11:45:55;;;;;;;26.67;12.43;;;;;;;;;;5053665;28;20054;-61
2021/12/22 11:48:22;;;;;;;26.92;12.23;;;;;;;;;;5072430;28;20094;-61
2021/12/22 11:50:48;;;;;;;21.77;11.80;;;;;;;;;;5068196;28;20072;-61
2021/12/22 11:53:15;;;;;;;25.13;10.93;;;;;;;;;;5083753;28;20059;-61
2021/12/22 11:55:42;;;;;;;26.20;11.27;;;;;;;;;;5063574;28;20057;-61
2021/12/22 11:58:12;;;;;;;26.65;10.95;;;;;;;;;;5063933;28;20767;-61
2021/12/22 12:00:40;;;;;;;23.83;10.73;;;;;;;;;;5068586;28;20067;-61
2021/12/22 12:03:27;;;;;;;29.13;11.77;;;;;;;;;;5080042;28;20148;-62
2021/12/22 12:06:10;;;;;;;27.45;10.75;;;;;;;;;;5078045;28;20594;-62
2021/12/22 12:08:39;;;;;;;34.15;11.55;;;;;;;;;;5063517;28;20065;-62
2021/12/22 12:11:06;;;;;;;21.63;10.07;;;;;;;;;;5077285;28;20057;-61
2021/12/22 12:13:38;;;;;;;20.80;10.63;;;;;;;;;;5075829;28;20136;-62
2021/12/22 12:21:52;;;;;;;29.05;11.90;;;;;;;;;;5074583;28;20088;-62
2021/12/22 12:24:30;;;;;;;25.20;11.60;;;;;;;;;;5063662;28;20059;-62
2021/12/22 12:27:02;;;;;;;26.63;12.48;;;;;;;;;;5083569;28;20063;-62
2021/12/22 12:29:46;;;;;;;23.40;11.68;;;;;;;;;;5070364;28;20080;-61
2021/12/22 12:32:32;;;;;;;29.90;12.85;;;;;;;;;;5081326;28;20056;-62
2021/12/22 12:35:17;;;;;;;28.90;12.60;;;;;;;;;;5071711;28;20041;-62
2021/12/22 12:38:05;;;;;;;27.40;12.20;;;;;;;;;;5081435;28;20511;-62
2021/12/22 12:40:51;;;;;;;25.00;11.75;;;;;;;;;;5067670;28;20053;-61
2021/12/22 12:43:17;;;;;;;25.90;12.30;;;;;;;;;;5066023;28;20055;-64
2021/12/22 12:45:44;;;;;;;27.55;12.65;;;;;;;;;;5064394;28;20540;-62
2021/12/22 12:48:27;;;;;;;25.45;11.70;;;;;;;;;;5077429;28;20076;-62
2021/12/22 12:51:15;;;;;;;25.23;11.82;;;;;;;;;;5075434;28;20099;-61
2021/12/22 12:53:43;;;;;;;27.27;11.65;;;;;;;;;;5063402;28;20060;-61
2021/12/22 12:56:10;;;;;;;25.33;12.05;;;;;;;;;;5065671;28;20059;-61
2021/12/22 12:58:56;;;;;;;24.75;11.93;;;;;;;;;;5070000;28;20060;-61
2021/12/22 13:01:41;;;;;;;22.55;11.30;;;;;;;;;;5069229;28;20055;-60
2021/12/22 13:04:20;;;;;;;23.23;12.18;;;;;;;;;;5070027;28;20484;-61
2021/12/22 13:06:47;;;;;;;28.85;11.13;;;;;;;;;;5051713;28;20060;-61
2021/12/22 13:09:31;;;;;;;23.08;11.35;;;;;;;;;;5063249;28;20056;-61
2021/12/22 13:11:59;;;;;;;27.05;11.18;;;;;;;;;;5075957;28;20155;-61
2021/12/22 13:17:22;;;;;;;25.13;11.18;;;;;;;;;;5071480;28;20048;-62
2021/12/22 13:19:50;;;;;;;21.52;10.75;;;;;;;;;;5065510;28;20072;-62
2021/12/22 13:22:20;;;;;;;27.67;11.43;;;;;;;;;;5076881;28;20061;-61
2021/12/22 13:24:47;;;;;;;23.95;11.85;;;;;;;;;;5069901;28;20870;-61
2021/12/22 13:27:29;;;;;;;21.08;10.75;;;;;;;;;;5071074;28;20052;-61
2021/12/22 13:30:09;;;;;;;21.40;11.35;;;;;;;;;;5078236;28;20053;-61
2021/12/22 13:32:53;;;;;;;22.33;10.60;;;;;;;;;;5070225;28;20048;-61
2021/12/22 13:35:30;;;;;;;23.45;10.93;;;;;;;;;;5061173;28;20069;-61
2021/12/22 13:37:57;;;;;;;21.83;10.32;;;;;;;;;;5059559;28;20170;-62
2021/12/22 13:40:32;;;;;;;22.00;10.45;;;;;;;;;;5066804;28;20052;-61
2021/12/22 13:42:59;;;;;;;25.00;10.88;;;;;;;;;;5073191;28;20172;-61
2021/12/22 13:45:25;;;;;;;24.40;10.23;;;;;;;;;;5083445;28;20089;-61
2021/12/22 13:47:51;;;;;;;26.77;11.00;;;;;;;;;;5077502;28;20620;-61
2021/12/22 13:50:18;;;;;;;26.27;10.18;;;;;;;;;;5070883;28;20511;-61
2021/12/22 13:52:45;;;;;;;20.08;10.32;;;;;;;;;;5078757;28;20056;-62
2021/12/22 13:55:11;;;;;;;24.35;11.35;;;;;;;;;;5085724;28;20049;-62
2021/12/22 13:57:38;;;;;;;25.67;11.50;;;;;;;;;;5073668;28;20060;-61
2021/12/22 14:00:05;;;;;;;23.10;10.70;;;;;;;;;;5075659;28;20138;-61
2021/12/22 14:02:33;;;;;;;26.00;11.85;;;;;;;;;;5082572;28;20140;-61
2021/12/22 14:05:17;;;;;;;21.00;10.73;;;;;;;;;;5068353;28;20092;-61
2021/12/22 14:07:43;;;;;;;20.65;10.68;;;;;;;;;;5067840;28;20057;-61
2021/12/22 14:10:15;;;;;;;18.80;10.75;;;;;;;;;;5073883;28;20045;-62
2021/12/22 14:12:44;;;;;;;21.40;11.02;;;;;;;;;;5083742;28;20291;-61
2021/12/22 14:15:12;;;;;;;24.20;11.23;;;;;;;;;;5068462;28;20064;-62
2021/12/22 14:17:43;;;;;;;22.30;10.95;;;;;;;;;;5080730;28;20507;-61
2021/12/22 14:20:10;;;;;;;23.02;11.20;;;;;;;;;;5079262;28;20499;-61
2021/12/22 14:22:38;;;;;;;24.20;10.70;;;;;;;;;;5070037;28;20053;-61
2021/12/22 14:25:19;;;;;;;23.63;12.23;;;;;;;;;;5073717;28;20063;-61
2021/12/22 14:27:51;;;;;;;28.08;12.05;;;;;;;;;;5078757;28;20521;-61
2021/12/22 14:30:21;;;;;;;26.90;11.35;;;;;;;;;;5065341;28;20092;-61
2021/12/22 14:32:52;;;;;;;29.30;12.32;;;;;;;;;;5076218;28;20634;-60
2021/12/22 14:35:19;;;;;;;24.60;11.35;;;;;;;;;;5046898;28;20507;-62
2021/12/22 14:37:53;;;;;;;20.00;10.77;;;;;;;;;;5062609;28;20047;-61
2021/12/22 14:40:22;;;;;;;21.73;10.30;;;;;;;;;;5063695;28;20044;-61
2021/12/22 14:42:55;;;;;;;21.38;10.45;;;;;;;;;;5074189;28;20476;-59
2021/12/22 14:45:28;;;;;;;19.83;9.48;;;;;;;;;;5084097;28;20059;-60
2021/12/22 14:48:08;;;;;;;18.38;9.32;;;;;;;;;;5074574;28;20148;-60
2021/12/22 14:50:35;;;;;;;19.92;10.07;;;;;;;;;;5066253;28;20057;-60
2021/12/22 14:53:11;;;;;;;20.75;10.02;;;;;;;;;;5076560;28;20053;-61
2021/12/22 14:55:46;;;;;;;19.58;9.73;;;;;;;;;;5054243;28;20879;-60
2021/12/22 14:58:15;;;;;;;18.92;9.45;;;;;;;;;;5063274;28;20516;-59